sensor_id;sensor_type;location;lat;lon;timestamp;P1;durP1;ratioP1;P2;durP2;ratioP2
38853;SDS011;24606;51.992;4.198;2023-04-24T00:01:27;6.47;;;0.90;;
38853;SDS011;24606;51.992;4.198;2023-04-24T00:06:29;3.30;;;1.38;;
38853;SDS011;24606;51.992;4.198;2023-04-24T00:11:34;2.38;;;0.60;;
38853;SDS011;24606;51.992;4.198;2023-04-24T00:16:36;3.05;;;1.15;;
38853;SDS011;24606;51.992;4.198;2023-04-24T00:21:38;2.22;;;1.00;;
38853;SDS011;24606;51.992;4.198;2023-04-24T00:26:42;3.10;;;1.30;;
38853;SDS011;24606;51.992;4.198;2023-04-24T00:31:44;5.97;;;1.48;;
38853;SDS011;24606;51.992;4.198;2023-04-24T00:36:46;2.20;;;0.70;;
38853;SDS011;24606;51.992;4.198;2023-04-24T00:41:51;3.55;;;0.45;;
38853;SDS011;24606;51.992;4.198;2023-04-24T00:46:55;2.40;;;1.02;;
38853;SDS011;24606;51.992;4.198;2023-04-24T00:51:57;2.28;;;0.82;;
38853;SDS011;24606;51.992;4.198;2023-04-24T00:57:01;1.73;;;0.37;;
38853;SDS011;24606;51.992;4.198;2023-04-24T01:02:03;5.13;;;1.20;;
38853;SDS011;24606;51.992;4.198;2023-04-24T01:07:05;3.78;;;0.85;;
38853;SDS011;24606;51.992;4.198;2023-04-24T01:12:11;2.10;;;0.80;;
38853;SDS011;24606;51.992;4.198;2023-04-24T01:17:13;6.10;;;1.05;;
38853;SDS011;24606;51.992;4.198;2023-04-24T01:22:17;2.63;;;0.70;;
38853;SDS011;24606;51.992;4.198;2023-04-24T01:27:19;1.00;;;0.60;;
38853;SDS011;24606;51.992;4.198;2023-04-24T01:32:21;2.60;;;1.70;;
38853;SDS011;24606;51.992;4.198;2023-04-24T01:37:24;3.50;;;1.03;;
38853;SDS011;24606;51.992;4.198;2023-04-24T01:42:27;4.18;;;0.75;;
38853;SDS011;24606;51.992;4.198;2023-04-24T01:47:29;2.67;;;0.80;;
38853;SDS011;24606;51.992;4.198;2023-04-24T01:57:36;4.28;;;0.75;;
38853;SDS011;24606;51.992;4.198;2023-04-24T02:02:38;6.38;;;0.88;;
38853;SDS011;24606;51.992;4.198;2023-04-24T02:07:42;3.08;;;0.95;;
38853;SDS011;24606;51.992;4.198;2023-04-24T02:12:44;4.57;;;1.60;;
38853;SDS011;24606;51.992;4.198;2023-04-24T02:17:46;4.83;;;2.37;;
38853;SDS011;24606;51.992;4.198;2023-04-24T02:22:49;2.73;;;0.87;;
38853;SDS011;24606;51.992;4.198;2023-04-24T02:27:51;2.45;;;0.77;;
38853;SDS011;24606;51.992;4.198;2023-04-24T02:32:53;3.93;;;1.83;;
38853;SDS011;24606;51.992;4.198;2023-04-24T02:37:56;1.40;;;0.50;;
38853;SDS011;24606;51.992;4.198;2023-04-24T02:42:58;4.70;;;1.08;;
38853;SDS011;24606;51.992;4.198;2023-04-24T02:48:00;3.10;;;1.00;;
38853;SDS011;24606;51.992;4.198;2023-04-24T02:53:03;3.70;;;0.60;;
38853;SDS011;24606;51.992;4.198;2023-04-24T02:58:05;3.85;;;0.70;;
38853;SDS011;24606;51.992;4.198;2023-04-24T03:03:07;7.00;;;0.98;;
38853;SDS011;24606;51.992;4.198;2023-04-24T03:08:10;4.28;;;1.55;;
38853;SDS011;24606;51.992;4.198;2023-04-24T03:13:12;19.23;;;1.67;;
38853;SDS011;24606;51.992;4.198;2023-04-24T03:18:14;11.15;;;1.77;;
38853;SDS011;24606;51.992;4.198;2023-04-24T03:23:17;7.28;;;1.23;;
38853;SDS011;24606;51.992;4.198;2023-04-24T03:28:19;7.63;;;1.13;;
38853;SDS011;24606;51.992;4.198;2023-04-24T03:33:21;4.07;;;0.85;;
38853;SDS011;24606;51.992;4.198;2023-04-24T03:38:24;6.97;;;0.98;;
38853;SDS011;24606;51.992;4.198;2023-04-24T03:43:25;11.38;;;1.40;;
38853;SDS011;24606;51.992;4.198;2023-04-24T03:48:28;10.65;;;2.38;;
38853;SDS011;24606;51.992;4.198;2023-04-24T03:53:31;19.17;;;3.30;;
38853;SDS011;24606;51.992;4.198;2023-04-24T03:58:33;14.77;;;3.60;;
38853;SDS011;24606;51.992;4.198;2023-04-24T04:03:35;8.90;;;3.55;;
38853;SDS011;24606;51.992;4.198;2023-04-24T04:08:39;13.53;;;3.47;;
38853;SDS011;24606;51.992;4.198;2023-04-24T04:13:41;13.75;;;2.88;;
38853;SDS011;24606;51.992;4.198;2023-04-24T04:18:42;12.77;;;3.63;;
38853;SDS011;24606;51.992;4.198;2023-04-24T04:23:46;10.77;;;3.63;;
38853;SDS011;24606;51.992;4.198;2023-04-24T04:28:48;12.52;;;3.03;;
38853;SDS011;24606;51.992;4.198;2023-04-24T04:33:50;19.97;;;6.53;;
38853;SDS011;24606;51.992;4.198;2023-04-24T04:38:53;23.45;;;5.50;;
38853;SDS011;24606;51.992;4.198;2023-04-24T04:48:58;30.90;;;6.53;;
38853;SDS011;24606;51.992;4.198;2023-04-24T04:54:02;26.17;;;7.60;;
38853;SDS011;24606;51.992;4.198;2023-04-24T04:59:04;13.27;;;4.63;;
38853;SDS011;24606;51.992;4.198;2023-04-24T05:04:06;22.27;;;4.57;;
38853;SDS011;24606;51.992;4.198;2023-04-24T05:09:10;26.60;;;7.35;;
38853;SDS011;24606;51.992;4.198;2023-04-24T05:14:11;17.15;;;6.28;;
38853;SDS011;24606;51.992;4.198;2023-04-24T05:19:13;17.35;;;6.80;;
38853;SDS011;24606;51.992;4.198;2023-04-24T05:24:16;17.50;;;5.22;;
38853;SDS011;24606;51.992;4.198;2023-04-24T05:29:18;22.63;;;6.40;;
38853;SDS011;24606;51.992;4.198;2023-04-24T05:34:20;19.73;;;4.65;;
38853;SDS011;24606;51.992;4.198;2023-04-24T05:39:23;20.83;;;4.40;;
38853;SDS011;24606;51.992;4.198;2023-04-24T05:44:25;25.08;;;5.05;;
38853;SDS011;24606;51.992;4.198;2023-04-24T05:49:27;20.07;;;5.87;;
38853;SDS011;24606;51.992;4.198;2023-04-24T05:54:31;15.93;;;3.65;;
38853;SDS011;24606;51.992;4.198;2023-04-24T05:59:33;16.30;;;3.85;;
38853;SDS011;24606;51.992;4.198;2023-04-24T06:04:34;15.60;;;4.00;;
38853;SDS011;24606;51.992;4.198;2023-04-24T06:09:38;20.60;;;3.88;;
38853;SDS011;24606;51.992;4.198;2023-04-24T06:14:39;17.95;;;4.32;;
38853;SDS011;24606;51.992;4.198;2023-04-24T06:19:41;20.77;;;4.75;;
38853;SDS011;24606;51.992;4.198;2023-04-24T06:24:44;16.00;;;2.83;;
38853;SDS011;24606;51.992;4.198;2023-04-24T06:29:47;19.70;;;4.30;;
38853;SDS011;24606;51.992;4.198;2023-04-24T06:34:54;15.82;;;3.55;;
38853;SDS011;24606;51.992;4.198;2023-04-24T06:39:57;24.48;;;4.88;;
38853;SDS011;24606;51.992;4.198;2023-04-24T06:44:59;14.70;;;2.45;;
38853;SDS011;24606;51.992;4.198;2023-04-24T06:50:01;16.88;;;4.00;;
38853;SDS011;24606;51.992;4.198;2023-04-24T06:55:05;18.13;;;4.28;;
38853;SDS011;24606;51.992;4.198;2023-04-24T07:00:08;17.20;;;3.25;;
38853;SDS011;24606;51.992;4.198;2023-04-24T07:05:10;14.77;;;2.58;;
38853;SDS011;24606;51.992;4.198;2023-04-24T07:10:14;11.98;;;2.97;;
38853;SDS011;24606;51.992;4.198;2023-04-24T07:15:16;13.70;;;2.85;;
38853;SDS011;24606;51.992;4.198;2023-04-24T07:20:18;13.40;;;2.53;;
38853;SDS011;24606;51.992;4.198;2023-04-24T07:25:21;15.23;;;2.45;;
38853;SDS011;24606;51.992;4.198;2023-04-24T07:30:23;17.63;;;2.58;;
38853;SDS011;24606;51.992;4.198;2023-04-24T07:35:25;16.92;;;3.47;;
38853;SDS011;24606;51.992;4.198;2023-04-24T07:45:31;18.73;;;2.58;;
38853;SDS011;24606;51.992;4.198;2023-04-24T07:50:36;10.35;;;2.10;;
38853;SDS011;24606;51.992;4.198;2023-04-24T07:55:39;10.50;;;1.90;;
38853;SDS011;24606;51.992;4.198;2023-04-24T08:00:41;11.52;;;2.05;;
38853;SDS011;24606;51.992;4.198;2023-04-24T08:05:43;11.73;;;2.15;;
38853;SDS011;24606;51.992;4.198;2023-04-24T08:10:46;6.47;;;1.95;;
38853;SDS011;24606;51.992;4.198;2023-04-24T08:15:48;7.30;;;1.48;;
38853;SDS011;24606;51.992;4.198;2023-04-24T08:20:50;6.80;;;1.97;;
38853;SDS011;24606;51.992;4.198;2023-04-24T08:25:53;8.38;;;1.30;;
38853;SDS011;24606;51.992;4.198;2023-04-24T08:30:55;12.63;;;1.73;;
38853;SDS011;24606;51.992;4.198;2023-04-24T08:35:57;4.55;;;1.15;;
38853;SDS011;24606;51.992;4.198;2023-04-24T08:41:02;5.63;;;1.13;;
38853;SDS011;24606;51.992;4.198;2023-04-24T08:46:05;11.55;;;1.48;;
38853;SDS011;24606;51.992;4.198;2023-04-24T08:51:07;4.03;;;1.10;;
38853;SDS011;24606;51.992;4.198;2023-04-24T08:56:12;3.90;;;1.00;;
38853;SDS011;24606;51.992;4.198;2023-04-24T09:01:14;5.72;;;0.98;;
38853;SDS011;24606;51.992;4.198;2023-04-24T09:06:16;4.88;;;1.10;;
38853;SDS011;24606;51.992;4.198;2023-04-24T09:11:22;8.45;;;1.60;;
38853;SDS011;24606;51.992;4.198;2023-04-24T09:16:26;9.10;;;1.25;;
38853;SDS011;24606;51.992;4.198;2023-04-24T09:21:31;2.67;;;0.90;;
38853;SDS011;24606;51.992;4.198;2023-04-24T09:26:36;3.53;;;1.15;;
38853;SDS011;24606;51.992;4.198;2023-04-24T09:31:38;3.03;;;0.85;;
38853;SDS011;24606;51.992;4.198;2023-04-24T09:36:40;7.90;;;1.10;;
38853;SDS011;24606;51.992;4.198;2023-04-24T09:41:45;6.20;;;1.17;;
38853;SDS011;24606;51.992;4.198;2023-04-24T09:46:49;6.32;;;1.25;;
38853;SDS011;24606;51.992;4.198;2023-04-24T09:51:51;6.18;;;1.13;;
38853;SDS011;24606;51.992;4.198;2023-04-24T09:57:04;3.97;;;0.98;;
38853;SDS011;24606;51.992;4.198;2023-04-24T10:02:16;8.80;;;1.30;;
38853;SDS011;24606;51.992;4.198;2023-04-24T10:07:18;10.90;;;1.83;;
38853;SDS011;24606;51.992;4.198;2023-04-24T10:12:22;12.00;;;1.13;;
38853;SDS011;24606;51.992;4.198;2023-04-24T10:17:25;7.57;;;1.10;;
38853;SDS011;24606;51.992;4.198;2023-04-24T10:22:29;8.35;;;1.08;;
38853;SDS011;24606;51.992;4.198;2023-04-24T10:27:33;12.85;;;0.85;;
38853;SDS011;24606;51.992;4.198;2023-04-24T10:32:36;5.47;;;1.08;;
38853;SDS011;24606;51.992;4.198;2023-04-24T10:37:38;11.10;;;1.50;;
38853;SDS011;24606;51.992;4.198;2023-04-24T10:42:44;6.75;;;0.80;;
38853;SDS011;24606;51.992;4.198;2023-04-24T10:47:58;6.95;;;0.90;;
38853;SDS011;24606;51.992;4.198;2023-04-24T10:53:06;2.28;;;0.63;;
38853;SDS011;24606;51.992;4.198;2023-04-24T10:58:14;4.63;;;0.98;;
38853;SDS011;24606;51.992;4.198;2023-04-24T11:03:24;3.70;;;0.70;;
38853;SDS011;24606;51.992;4.198;2023-04-24T11:08:28;5.18;;;1.13;;
38853;SDS011;24606;51.992;4.198;2023-04-24T11:19:09;3.03;;;0.80;;
38853;SDS011;24606;51.992;4.198;2023-04-24T11:24:23;4.82;;;1.25;;
38853;SDS011;24606;51.992;4.198;2023-04-24T11:29:39;6.45;;;1.20;;
38853;SDS011;24606;51.992;4.198;2023-04-24T11:34:44;5.95;;;0.93;;
38853;SDS011;24606;51.992;4.198;2023-04-24T11:39:49;5.80;;;1.17;;
38853;SDS011;24606;51.992;4.198;2023-04-24T11:44:54;10.60;;;1.58;;
38853;SDS011;24606;51.992;4.198;2023-04-24T11:49:57;7.57;;;1.40;;
38853;SDS011;24606;51.992;4.198;2023-04-24T11:54:59;13.15;;;2.33;;
38853;SDS011;24606;51.992;4.198;2023-04-24T12:00:04;11.65;;;2.13;;
38853;SDS011;24606;51.992;4.198;2023-04-24T12:05:08;10.38;;;1.60;;
38853;SDS011;24606;51.992;4.198;2023-04-24T12:10:11;4.95;;;1.10;;
38853;SDS011;24606;51.992;4.198;2023-04-24T12:15:17;6.15;;;1.42;;
38853;SDS011;24606;51.992;4.198;2023-04-24T12:20:23;6.45;;;1.45;;
38853;SDS011;24606;51.992;4.198;2023-04-24T12:25:27;7.80;;;1.42;;
38853;SDS011;24606;51.992;4.198;2023-04-24T12:30:31;9.82;;;1.75;;
38853;SDS011;24606;51.992;4.198;2023-04-24T12:35:33;15.27;;;3.25;;
38853;SDS011;24606;51.992;4.198;2023-04-24T12:40:36;13.43;;;2.00;;
38853;SDS011;24606;51.992;4.198;2023-04-24T12:45:39;10.30;;;1.50;;
38853;SDS011;24606;51.992;4.198;2023-04-24T12:50:41;9.65;;;2.05;;
38853;SDS011;24606;51.992;4.198;2023-04-24T12:55:43;22.50;;;3.15;;
38853;SDS011;24606;51.992;4.198;2023-04-24T13:00:48;9.32;;;2.15;;
38853;SDS011;24606;51.992;4.198;2023-04-24T13:05:50;8.40;;;1.73;;
38853;SDS011;24606;51.992;4.198;2023-04-24T13:10:52;16.30;;;2.72;;
38853;SDS011;24606;51.992;4.198;2023-04-24T13:15:55;9.67;;;2.07;;
38853;SDS011;24606;51.992;4.198;2023-04-24T13:20:57;15.50;;;3.47;;
38853;SDS011;24606;51.992;4.198;2023-04-24T13:25:59;9.87;;;2.27;;
38853;SDS011;24606;51.992;4.198;2023-04-24T13:31:02;13.35;;;2.58;;
38853;SDS011;24606;51.992;4.198;2023-04-24T13:36:04;10.25;;;2.05;;
38853;SDS011;24606;51.992;4.198;2023-04-24T13:41:06;11.60;;;2.03;;
38853;SDS011;24606;51.992;4.198;2023-04-24T13:46:09;14.18;;;3.50;;
38853;SDS011;24606;51.992;4.198;2023-04-24T13:51:11;18.42;;;2.53;;
38853;SDS011;24606;51.992;4.198;2023-04-24T13:56:13;15.27;;;3.40;;
38853;SDS011;24606;51.992;4.198;2023-04-24T14:01:17;12.02;;;2.78;;
38853;SDS011;24606;51.992;4.198;2023-04-24T14:06:19;16.80;;;3.10;;
38853;SDS011;24606;51.992;4.198;2023-04-24T14:11:21;10.10;;;2.70;;
38853;SDS011;24606;51.992;4.198;2023-04-24T14:16:24;12.23;;;1.93;;
38853;SDS011;24606;51.992;4.198;2023-04-24T14:21:26;11.82;;;2.28;;
38853;SDS011;24606;51.992;4.198;2023-04-24T14:26:28;14.27;;;3.00;;
38853;SDS011;24606;51.992;4.198;2023-04-24T14:31:31;7.60;;;1.80;;
38853;SDS011;24606;51.992;4.198;2023-04-24T14:36:33;11.82;;;2.72;;
38853;SDS011;24606;51.992;4.198;2023-04-24T14:41:35;21.02;;;2.88;;
38853;SDS011;24606;51.992;4.198;2023-04-24T14:46:38;15.52;;;2.65;;
38853;SDS011;24606;51.992;4.198;2023-04-24T14:51:40;16.50;;;3.47;;
38853;SDS011;24606;51.992;4.198;2023-04-24T15:01:46;12.50;;;2.92;;
38853;SDS011;24606;51.992;4.198;2023-04-24T15:06:48;11.95;;;3.15;;
38853;SDS011;24606;51.992;4.198;2023-04-24T15:11:50;32.88;;;5.03;;
38853;SDS011;24606;51.992;4.198;2023-04-24T15:16:53;14.83;;;4.10;;
38853;SDS011;24606;51.992;4.198;2023-04-24T15:21:55;16.67;;;2.95;;
38853;SDS011;24606;51.992;4.198;2023-04-24T15:26:58;10.70;;;3.63;;
38853;SDS011;24606;51.992;4.198;2023-04-24T15:32:03;18.13;;;3.03;;
38853;SDS011;24606;51.992;4.198;2023-04-24T15:37:05;19.23;;;3.17;;
38853;SDS011;24606;51.992;4.198;2023-04-24T15:42:07;13.53;;;2.90;;
38853;SDS011;24606;51.992;4.198;2023-04-24T15:47:10;28.30;;;3.37;;
38853;SDS011;24606;51.992;4.198;2023-04-24T15:52:14;11.88;;;2.80;;
38853;SDS011;24606;51.992;4.198;2023-04-24T15:57:16;16.43;;;3.40;;
38853;SDS011;24606;51.992;4.198;2023-04-24T16:02:19;11.38;;;2.45;;
38853;SDS011;24606;51.992;4.198;2023-04-24T16:07:22;9.38;;;2.70;;
38853;SDS011;24606;51.992;4.198;2023-04-24T16:12:23;15.00;;;3.40;;
38853;SDS011;24606;51.992;4.198;2023-04-24T16:17:28;8.85;;;3.08;;
38853;SDS011;24606;51.992;4.198;2023-04-24T16:22:30;14.88;;;2.80;;
38853;SDS011;24606;51.992;4.198;2023-04-24T16:27:32;11.53;;;3.27;;
38853;SDS011;24606;51.992;4.198;2023-04-24T16:32:35;12.75;;;2.70;;
38853;SDS011;24606;51.992;4.198;2023-04-24T16:37:37;14.48;;;2.92;;
38853;SDS011;24606;51.992;4.198;2023-04-24T16:42:39;17.83;;;3.43;;
38853;SDS011;24606;51.992;4.198;2023-04-24T16:47:42;7.10;;;1.77;;
38853;SDS011;24606;51.992;4.198;2023-04-24T16:52:44;11.02;;;2.42;;
38853;SDS011;24606;51.992;4.198;2023-04-24T16:57:45;7.57;;;2.70;;
38853;SDS011;24606;51.992;4.198;2023-04-24T17:02:49;13.20;;;2.70;;
38853;SDS011;24606;51.992;4.198;2023-04-24T17:07:50;12.52;;;2.50;;
38853;SDS011;24606;51.992;4.198;2023-04-24T17:12:52;10.47;;;2.50;;
38853;SDS011;24606;51.992;4.198;2023-04-24T17:17:55;13.97;;;2.80;;
38853;SDS011;24606;51.992;4.198;2023-04-24T17:22:57;12.48;;;2.80;;
38853;SDS011;24606;51.992;4.198;2023-04-24T17:27:59;13.57;;;2.87;;
38853;SDS011;24606;51.992;4.198;2023-04-24T17:33:03;10.37;;;2.40;;
38853;SDS011;24606;51.992;4.198;2023-04-24T17:38:04;20.55;;;3.25;;
38853;SDS011;24606;51.992;4.198;2023-04-24T17:43:06;19.05;;;4.07;;
38853;SDS011;24606;51.992;4.198;2023-04-24T17:48:09;13.53;;;2.40;;
38853;SDS011;24606;51.992;4.198;2023-04-24T17:53:12;10.77;;;2.75;;
38853;SDS011;24606;51.992;4.198;2023-04-24T18:03:19;12.02;;;2.15;;
38853;SDS011;24606;51.992;4.198;2023-04-24T18:08:21;6.32;;;1.75;;
38853;SDS011;24606;51.992;4.198;2023-04-24T18:13:23;12.43;;;2.40;;
38853;SDS011;24606;51.992;4.198;2023-04-24T18:18:26;10.00;;;2.27;;
38853;SDS011;24606;51.992;4.198;2023-04-24T18:23:28;12.73;;;2.13;;
38853;SDS011;24606;51.992;4.198;2023-04-24T18:28:30;10.25;;;2.60;;
38853;SDS011;24606;51.992;4.198;2023-04-24T18:33:35;15.45;;;1.80;;
38853;SDS011;24606;51.992;4.198;2023-04-24T18:38:37;10.38;;;2.17;;
38853;SDS011;24606;51.992;4.198;2023-04-24T18:43:38;6.57;;;2.80;;
38853;SDS011;24606;51.992;4.198;2023-04-24T18:48:42;5.83;;;1.80;;
38853;SDS011;24606;51.992;4.198;2023-04-24T18:53:43;7.75;;;1.73;;
38853;SDS011;24606;51.992;4.198;2023-04-24T18:58:45;6.40;;;1.70;;
38853;SDS011;24606;51.992;4.198;2023-04-24T19:03:49;10.05;;;1.92;;
38853;SDS011;24606;51.992;4.198;2023-04-24T19:08:51;11.73;;;3.22;;
38853;SDS011;24606;51.992;4.198;2023-04-24T19:13:52;21.80;;;3.13;;
38853;SDS011;24606;51.992;4.198;2023-04-24T19:18:56;12.17;;;2.27;;
38853;SDS011;24606;51.992;4.198;2023-04-24T19:23:57;11.48;;;2.13;;
38853;SDS011;24606;51.992;4.198;2023-04-24T19:28:59;10.87;;;2.50;;
38853;SDS011;24606;51.992;4.198;2023-04-24T19:34:03;5.10;;;1.30;;
38853;SDS011;24606;51.992;4.198;2023-04-24T19:39:05;11.95;;;2.10;;
38853;SDS011;24606;51.992;4.198;2023-04-24T19:44:07;14.73;;;2.63;;
38853;SDS011;24606;51.992;4.198;2023-04-24T19:49:11;15.27;;;2.93;;
38853;SDS011;24606;51.992;4.198;2023-04-24T19:54:14;14.63;;;2.05;;
38853;SDS011;24606;51.992;4.198;2023-04-24T19:59:16;10.20;;;2.60;;
38853;SDS011;24606;51.992;4.198;2023-04-24T20:04:19;10.88;;;1.67;;
38853;SDS011;24606;51.992;4.198;2023-04-24T20:09:22;11.30;;;2.25;;
38853;SDS011;24606;51.992;4.198;2023-04-24T20:14:24;6.90;;;2.10;;
38853;SDS011;24606;51.992;4.198;2023-04-24T20:19:27;14.37;;;2.30;;
38853;SDS011;24606;51.992;4.198;2023-04-24T20:24:29;9.98;;;1.67;;
38853;SDS011;24606;51.992;4.198;2023-04-24T20:29:31;14.87;;;1.93;;
38853;SDS011;24606;51.992;4.198;2023-04-24T20:34:34;5.87;;;2.37;;
38853;SDS011;24606;51.992;4.198;2023-04-24T20:39:35;8.95;;;2.05;;
38853;SDS011;24606;51.992;4.198;2023-04-24T20:44:38;3.80;;;1.70;;
38853;SDS011;24606;51.992;4.198;2023-04-24T20:54:43;16.95;;;2.50;;
38853;SDS011;24606;51.992;4.198;2023-04-24T20:59:45;11.32;;;2.88;;
38853;SDS011;24606;51.992;4.198;2023-04-24T21:04:49;6.17;;;2.30;;
38853;SDS011;24606;51.992;4.198;2023-04-24T21:09:50;7.47;;;1.83;;
38853;SDS011;24606;51.992;4.198;2023-04-24T21:14:52;8.77;;;2.33;;
38853;SDS011;24606;51.992;4.198;2023-04-24T21:19:55;5.82;;;1.65;;
38853;SDS011;24606;51.992;4.198;2023-04-24T21:24:57;8.35;;;2.13;;
38853;SDS011;24606;51.992;4.198;2023-04-24T21:29:59;5.03;;;1.60;;
38853;SDS011;24606;51.992;4.198;2023-04-24T21:35:02;6.65;;;2.42;;
38853;SDS011;24606;51.992;4.198;2023-04-24T21:40:05;9.35;;;2.63;;
38853;SDS011;24606;51.992;4.198;2023-04-24T21:45:10;4.63;;;2.03;;
38853;SDS011;24606;51.992;4.198;2023-04-24T21:50:13;5.32;;;2.13;;
38853;SDS011;24606;51.992;4.198;2023-04-24T21:55:15;5.05;;;2.15;;
38853;SDS011;24606;51.992;4.198;2023-04-24T22:00:17;3.90;;;2.15;;
38853;SDS011;24606;51.992;4.198;2023-04-24T22:05:20;5.97;;;1.95;;
38853;SDS011;24606;51.992;4.198;2023-04-24T22:10:23;5.20;;;1.77;;
38853;SDS011;24606;51.992;4.198;2023-04-24T22:15:26;5.70;;;1.85;;
38853;SDS011;24606;51.992;4.198;2023-04-24T22:20:29;16.63;;;3.10;;
38853;SDS011;24606;51.992;4.198;2023-04-24T22:25:32;11.43;;;2.33;;
38853;SDS011;24606;51.992;4.198;2023-04-24T22:30:34;10.50;;;2.55;;
38853;SDS011;24606;51.992;4.198;2023-04-24T22:35:38;5.30;;;2.20;;
38853;SDS011;24606;51.992;4.198;2023-04-24T22:40:40;12.10;;;2.58;;
38853;SDS011;24606;51.992;4.198;2023-04-24T22:45:42;12.77;;;2.92;;
38853;SDS011;24606;51.992;4.198;2023-04-24T22:50:45;16.20;;;3.22;;
38853;SDS011;24606;51.992;4.198;2023-04-24T22:55:47;8.93;;;2.95;;
38853;SDS011;24606;51.992;4.198;2023-04-24T23:00:49;7.43;;;2.73;;
38853;SDS011;24606;51.992;4.198;2023-04-24T23:05:52;6.30;;;2.90;;
38853;SDS011;24606;51.992;4.198;2023-04-24T23:10:54;9.25;;;2.25;;
38853;SDS011;24606;51.992;4.198;2023-04-24T23:15:56;13.77;;;2.90;;
38853;SDS011;24606;51.992;4.198;2023-04-24T23:21:00;9.93;;;3.13;;
38853;SDS011;24606;51.992;4.198;2023-04-24T23:26:02;7.72;;;2.67;;
38853;SDS011;24606;51.992;4.198;2023-04-24T23:31:04;10.50;;;2.97;;
38853;SDS011;24606;51.992;4.198;2023-04-24T23:36:08;9.10;;;3.27;;
38853;SDS011;24606;51.992;4.198;2023-04-24T23:41:10;8.98;;;3.25;;
38853;SDS011;24606;51.992;4.198;2023-04-24T23:46:12;7.00;;;2.93;;
38853;SDS011;24606;51.992;4.198;2023-04-24T23:51:16;6.80;;;2.22;;
38853;SDS011;24606;51.992;4.198;2023-04-24T23:56:18;7.97;;;2.92;;
